Airfield :
LOGIN :

Register | Disclaimer

   EN    FR    IT 

 










Legend :    VFR   Marginal VFR   IFR   Intensive IFR   Very Intensive IFR
Visi :
Ceiling :
>= 8 km
>= 3000ft
5 to 8 km
1000 to 3000 ft
1500m to 5 km
500 to 1000 ft
800 to 1500m
200 to 500 ft
< 800m
< 200 ft
Symbols :   Thunderstorms  Fog  Heavy snow  Heavy precipitations  Wind > 20 kt
SIGMETs :     Misc.  Thunderstorms  Icing  Turbulence  Mountain Waves  Volcanic Ashes







- Airport Elevation : 353 ft
- IATA code : ZAG


LDZA - Zagreb Pleso

CURRENT METAR :
  • 230630Z 08002KT 4000 BR OVC016 M03/M05 Q1002 R05/CLRD// NOSIG

EXPIRED METARs :
  • 230600Z 00000KT 6000 OVC017 M03/M05 Q1002 R05/29//95 TEMPO 4000 BR
  • 230530Z VRB02KT 9999 OVC017 M03/M05 Q1002 R05/29//95 NOSIG
  • 230500Z VRB02KT 8000 -SN BKN017 OVC025 M03/M05 Q1002 R99/590195 NOSIG
  • 230430Z VRB02KT 8000 -SN BKN017 OVC025 M03/M04 Q1002 R99/590195 NOSIG
  • 230400Z 04003KT 360V080 4000 -SN BKN017 OVC035 M03/M04 Q1002 R99/590195 NOSIG

TAF TAF LDZA
Valid from the 23 at 06:00 until the 24 at 06:00 UTC


230525Z 2306/2406 05005KT 7000 BKN015 OVC030 TX00/2312Z TNM03/2306Z
TEMPO 2306/2312 3000 -SN BKN010 OVC020
TEMPO 2317/2406 3000 -SN BKN007 OVC020
ATIS : +385 1 6-259-214
No reported NOTAMs for that airfield.



MET'MAP, your aeronautical weather chart ! - Copyright ORBIFLY December 2007 - Disclaimer

ORBIFLY MET'MAP TEAM :

Programming & Development : Alexandra Zaïnal
Concept & Development : Baudouin d'Aumeries
Co-Development & Prog : Marc-Olivier Méhu
Technical & hardware support : Manuel Goepfert

Contact : metmap@orbifly.com




SOURCES & CREDITS :

   NOAA